createdAt,value
2024-02-19T00:01:32.326Z,4.60
2024-02-19T00:04:00.961Z,4.38
2024-02-19T00:06:29.590Z,4.40
2024-02-19T00:08:58.326Z,4.03
2024-02-19T00:11:27.106Z,4.15
2024-02-19T00:13:58.098Z,4.15
2024-02-19T00:16:28.902Z,3.90
2024-02-19T00:18:57.500Z,3.70
2024-02-19T00:21:25.919Z,3.70
2024-02-19T00:23:54.748Z,3.90
2024-02-19T00:26:23.071Z,3.53
2024-02-19T00:28:51.775Z,4.10
2024-02-19T00:31:20.270Z,3.88
2024-02-19T00:33:50.307Z,3.58
2024-02-19T00:36:18.859Z,3.50
2024-02-19T00:38:47.295Z,3.90
2024-02-19T00:41:15.722Z,3.85
2024-02-19T00:43:44.066Z,3.58
2024-02-19T00:46:12.542Z,3.53
2024-02-19T00:48:41.112Z,3.55
2024-02-19T00:51:11.138Z,3.58
2024-02-19T00:53:41.123Z,3.45
2024-02-19T00:56:09.516Z,3.22
2024-02-19T00:58:37.936Z,3.30
2024-02-19T01:01:06.685Z,3.35
2024-02-19T01:03:35.157Z,3.63
2024-02-19T01:06:03.502Z,3.42
2024-02-19T01:08:33.288Z,3.67
2024-02-19T01:11:02.024Z,3.33
2024-02-19T01:13:30.554Z,3.20
2024-02-19T01:15:59.298Z,3.20
2024-02-19T01:18:27.823Z,3.00
2024-02-19T01:20:57.292Z,3.15
2024-02-19T01:23:25.704Z,3.10
2024-02-19T01:25:55.594Z,3.17
2024-02-19T01:28:24.120Z,3.10
2024-02-19T01:30:52.684Z,2.90
2024-02-19T01:33:22.880Z,3.00
2024-02-19T01:35:51.357Z,2.83
2024-02-19T01:38:19.834Z,3.00
2024-02-19T01:40:48.240Z,2.65
2024-02-19T01:43:18.238Z,3.08
2024-02-19T01:45:46.762Z,3.03
2024-02-19T01:48:15.513Z,2.60
2024-02-19T01:50:46.472Z,2.45
2024-02-19T01:53:15.084Z,2.17
2024-02-19T01:55:44.532Z,2.30
2024-02-19T01:58:13.835Z,2.00
2024-02-19T02:00:44.191Z,1.70
2024-02-19T02:03:13.622Z,1.60
2024-02-19T02:05:42.177Z,1.90
2024-02-19T02:08:11.260Z,2.00
2024-02-19T02:10:39.733Z,1.92
2024-02-19T02:13:09.773Z,2.05
2024-02-19T02:15:38.346Z,1.92
2024-02-19T02:18:08.472Z,2.00
2024-02-19T02:20:39.089Z,1.80
2024-02-19T02:23:08.529Z,1.90
2024-02-19T02:25:37.636Z,1.23
2024-02-19T02:28:07.742Z,1.23
2024-02-19T02:30:36.259Z,1.30
2024-02-19T02:33:05.099Z,1.67
2024-02-19T02:35:33.552Z,1.50
2024-02-19T02:38:02.018Z,1.40
2024-02-19T02:40:30.480Z,1.30
2024-02-19T02:42:59.435Z,0.98
2024-02-19T02:45:29.375Z,0.90
2024-02-19T02:47:57.776Z,0.77
2024-02-19T02:50:26.152Z,0.52
2024-02-19T02:52:54.783Z,0.60
2024-02-19T02:55:23.160Z,0.40
2024-02-19T02:57:51.743Z,0.40
2024-02-19T03:00:20.736Z,0.40
2024-02-19T03:02:50.581Z,0.52
2024-02-19T03:05:19.012Z,0.55
2024-02-19T03:07:47.547Z,0.55
2024-02-19T03:10:17.057Z,0.40
2024-02-19T03:12:45.542Z,0.50
2024-02-19T03:15:14.150Z,0.40
2024-02-19T03:17:45.023Z,0.52
2024-02-19T03:20:15.295Z,0.50
2024-02-19T03:22:44.516Z,0.50
2024-02-19T03:25:13.150Z,0.50
2024-02-19T03:27:42.125Z,0.60
2024-02-19T03:30:11.184Z,0.60
2024-02-19T03:32:39.786Z,0.80
2024-02-19T03:35:08.794Z,1.38
2024-02-19T03:37:39.168Z,1.13
2024-02-19T03:40:10.070Z,1.08
2024-02-19T03:42:38.666Z,0.73
2024-02-19T03:45:08.220Z,1.00
2024-02-19T03:47:36.672Z,0.75
2024-02-19T03:50:05.982Z,1.10
2024-02-19T03:52:34.316Z,0.98
2024-02-19T03:55:05.191Z,1.00
2024-02-19T03:57:33.794Z,0.82
2024-02-19T04:00:06.029Z,1.00
2024-02-19T04:02:34.434Z,0.95
2024-02-19T04:05:03.069Z,0.70
2024-02-19T04:07:32.438Z,1.13
2024-02-19T04:10:00.921Z,0.90
2024-02-19T04:12:30.786Z,0.90
2024-02-19T04:14:59.369Z,1.02
2024-02-19T04:17:28.051Z,0.90
2024-02-19T04:19:59.185Z,0.80
2024-02-19T04:22:27.703Z,1.10
2024-02-19T04:24:56.149Z,1.02
2024-02-19T04:27:24.836Z,0.93
2024-02-19T04:29:54.925Z,0.88
2024-02-19T04:32:23.402Z,1.10
2024-02-19T04:34:51.837Z,0.77
2024-02-19T04:37:21.344Z,0.70
2024-02-19T04:39:49.795Z,0.90
2024-02-19T04:42:18.189Z,1.27
2024-02-19T04:44:46.503Z,1.35
2024-02-19T04:47:16.318Z,1.55
2024-02-19T04:49:45.357Z,1.58
2024-02-19T04:52:14.002Z,0.90
2024-02-19T04:54:42.730Z,0.85
2024-02-19T04:57:11.082Z,0.80
2024-02-19T04:59:39.523Z,0.80
2024-02-19T05:02:07.960Z,0.60
2024-02-19T05:04:37.908Z,0.57
2024-02-19T05:07:06.475Z,1.05
2024-02-19T05:09:35.167Z,0.90
2024-02-19T05:12:03.977Z,0.70
2024-02-19T05:14:32.536Z,0.70
2024-02-19T05:17:01.798Z,0.80
2024-02-19T05:19:30.267Z,0.80
2024-02-19T05:22:00.100Z,0.65
2024-02-19T05:24:28.417Z,0.65
2024-02-19T05:26:56.740Z,0.60
2024-02-19T05:29:25.568Z,0.60
2024-02-19T05:31:54.119Z,0.93
2024-02-19T05:34:22.571Z,1.25
2024-02-19T05:36:51.086Z,0.60
2024-02-19T05:39:20.933Z,0.50
2024-02-19T05:41:49.273Z,0.60
2024-02-19T05:44:17.666Z,0.63
2024-02-19T05:46:46.048Z,0.40
2024-02-19T05:49:14.537Z,0.50
2024-02-19T05:51:43.603Z,0.60
2024-02-19T05:54:12.008Z,0.70
2024-02-19T05:56:42.616Z,0.90
2024-02-19T05:59:10.980Z,1.20
2024-02-19T06:01:39.537Z,1.00
2024-02-19T06:04:08.331Z,1.20
2024-02-19T06:06:36.759Z,1.00
2024-02-19T06:09:05.927Z,0.80
2024-02-19T06:11:34.506Z,1.10
2024-02-19T06:14:04.359Z,0.90
2024-02-19T06:16:32.733Z,1.27
2024-02-19T06:19:03.262Z,1.20
2024-02-19T06:21:32.241Z,1.20
2024-02-19T06:24:00.557Z,1.10
2024-02-19T06:26:28.912Z,1.17
2024-02-19T06:28:57.289Z,0.90
2024-02-19T06:31:29.366Z,1.10
2024-02-19T06:33:58.182Z,1.45
2024-02-19T06:36:26.692Z,1.42
2024-02-19T06:38:55.038Z,0.90
2024-02-19T06:41:23.467Z,1.00
2024-02-19T06:43:51.943Z,0.90
2024-02-19T06:46:20.502Z,0.93
2024-02-19T06:48:50.697Z,0.95
2024-02-19T06:51:20.197Z,0.75
2024-02-19T06:53:48.609Z,0.88
2024-02-19T06:56:17.010Z,1.00
2024-02-19T06:58:45.328Z,1.20
2024-02-19T07:01:15.982Z,1.20
2024-02-19T07:03:44.572Z,0.90
2024-02-19T07:06:14.462Z,0.93
2024-02-19T07:08:43.203Z,0.80
2024-02-19T07:11:11.827Z,1.20
2024-02-19T07:13:40.162Z,1.38
2024-02-19T07:16:09.063Z,1.00
2024-02-19T07:18:37.494Z,1.17
2024-02-19T07:21:06.240Z,1.17
2024-02-19T07:23:36.003Z,1.38
2024-02-19T07:26:04.694Z,1.38
2024-02-19T07:28:33.190Z,0.90
2024-02-19T07:31:01.882Z,1.27
2024-02-19T07:33:30.514Z,1.30
2024-02-19T07:35:58.873Z,1.20
2024-02-19T07:38:27.307Z,3.42
2024-02-19T07:40:57.020Z,2.83
2024-02-19T07:43:25.500Z,6.82
2024-02-19T07:45:54.154Z,31.83
2024-02-19T07:48:22.578Z,55.65
2024-02-19T07:50:51.030Z,43.97
2024-02-19T07:53:19.301Z,34.40
2024-02-19T07:55:47.609Z,21.60
2024-02-19T07:58:21.586Z,14.07
2024-02-19T08:00:50.196Z,6.90
2024-02-19T08:03:18.706Z,4.45
2024-02-19T08:05:49.449Z,3.95
2024-02-19T08:08:18.019Z,2.88
2024-02-19T08:10:46.618Z,2.30
2024-02-19T08:13:16.871Z,2.38
2024-02-19T08:15:46.272Z,3.20
2024-02-19T08:18:15.795Z,2.10
2024-02-19T08:20:44.361Z,2.33
2024-02-19T08:23:12.777Z,3.85
2024-02-19T08:25:41.153Z,3.10
2024-02-19T08:28:09.618Z,4.78
2024-02-19T08:30:39.547Z,2.20
2024-02-19T08:33:08.038Z,2.00
2024-02-19T08:35:36.552Z,1.90
2024-02-19T08:38:05.784Z,1.50
2024-02-19T08:40:34.100Z,1.10
2024-02-19T08:43:02.673Z,1.30
2024-02-19T08:45:35.610Z,0.93
2024-02-19T08:48:07.895Z,1.05
2024-02-19T08:50:36.976Z,1.17
2024-02-19T08:53:05.741Z,1.27
2024-02-19T08:55:35.086Z,0.90
2024-02-19T08:58:03.534Z,1.02
2024-02-19T09:00:34.135Z,0.75
2024-02-19T09:03:03.053Z,0.80
2024-02-19T09:05:33.117Z,1.00
2024-02-19T09:08:01.760Z,0.80
2024-02-19T09:10:30.231Z,1.10
2024-02-19T09:12:58.699Z,1.00
2024-02-19T09:15:27.846Z,1.20
2024-02-19T09:17:56.814Z,1.33
2024-02-19T09:20:25.469Z,1.40
2024-02-19T09:22:55.321Z,1.70
2024-02-19T09:25:24.940Z,1.40
2024-02-19T09:27:54.159Z,1.13
2024-02-19T09:30:22.802Z,1.10
2024-02-19T09:32:51.368Z,0.90
2024-02-19T09:35:20.583Z,1.02
2024-02-19T09:37:50.642Z,1.00
2024-02-19T09:40:23.841Z,1.17
2024-02-19T09:42:53.089Z,1.20
2024-02-19T09:45:21.838Z,1.20
2024-02-19T09:47:54.556Z,1.20
2024-02-19T09:50:24.557Z,1.23
2024-02-19T09:52:57.824Z,1.00
2024-02-19T09:55:28.056Z,0.80
2024-02-19T09:57:57.741Z,0.98
2024-02-19T10:00:26.525Z,0.90
2024-02-19T10:02:55.624Z,0.90
2024-02-19T10:05:24.841Z,1.05
2024-02-19T10:07:59.205Z,0.93
2024-02-19T10:10:29.907Z,1.10
2024-02-19T10:12:58.925Z,1.00
2024-02-19T10:15:27.341Z,1.13
2024-02-19T10:17:55.782Z,1.08
2024-02-19T10:20:24.192Z,1.20
2024-02-19T10:22:52.598Z,1.35
2024-02-19T10:25:21.037Z,0.93
2024-02-19T10:27:51.107Z,1.05
2024-02-19T10:30:20.108Z,1.00
2024-02-19T10:32:48.441Z,1.05
2024-02-19T10:35:17.312Z,1.00
2024-02-19T10:37:45.682Z,1.00
2024-02-19T10:40:18.672Z,0.77
2024-02-19T10:42:48.496Z,1.10
2024-02-19T10:45:19.090Z,1.10
2024-02-19T10:47:47.907Z,0.97
2024-02-19T10:50:19.241Z,0.90
2024-02-19T10:52:48.475Z,1.08
2024-02-19T10:55:24.878Z,1.10
2024-02-19T10:58:00.260Z,1.10
2024-02-19T11:00:30.698Z,1.05
2024-02-19T11:03:06.377Z,1.10
2024-02-19T11:05:40.414Z,1.17
2024-02-19T11:08:20.501Z,1.13
2024-02-19T11:10:50.316Z,1.00
2024-02-19T11:13:22.277Z,1.20
2024-02-19T11:15:52.332Z,1.30
2024-02-19T11:18:21.640Z,1.00
2024-02-19T11:20:51.173Z,1.00
2024-02-19T11:23:21.792Z,1.13
2024-02-19T11:25:50.311Z,1.02
2024-02-19T11:28:20.304Z,1.05
2024-02-19T11:30:49.490Z,0.80
2024-02-19T11:33:19.467Z,0.98
2024-02-19T11:35:47.889Z,1.05
2024-02-19T11:38:16.580Z,1.20
2024-02-19T11:40:44.855Z,1.00
2024-02-19T11:43:13.507Z,0.90
2024-02-19T11:45:42.024Z,1.23
2024-02-19T11:48:10.973Z,1.15
2024-02-19T11:50:43.435Z,1.30
2024-02-19T11:53:14.247Z,1.48
2024-02-19T11:55:43.469Z,1.20
2024-02-19T11:58:13.602Z,1.40
2024-02-19T12:00:42.774Z,1.38
2024-02-19T12:03:16.043Z,1.40
2024-02-19T12:05:45.880Z,1.50
2024-02-19T12:08:14.898Z,1.60
2024-02-19T12:10:43.401Z,1.25
2024-02-19T12:13:12.234Z,0.98
2024-02-19T12:15:51.430Z,1.17
2024-02-19T12:18:19.999Z,1.00
2024-02-19T12:20:50.104Z,0.95
2024-02-19T12:23:18.422Z,1.00
2024-02-19T12:25:46.740Z,0.88
2024-02-19T12:28:15.268Z,0.75
2024-02-19T12:30:43.845Z,1.08
2024-02-19T12:33:12.730Z,0.90
2024-02-19T12:35:42.101Z,1.30
2024-02-19T12:38:12.164Z,1.02
2024-02-19T12:40:40.591Z,0.88
2024-02-19T12:43:09.111Z,0.90
2024-02-19T12:45:37.708Z,0.70
2024-02-19T12:48:07.392Z,0.70
2024-02-19T12:50:36.187Z,0.80
2024-02-19T12:53:04.820Z,0.65
2024-02-19T12:55:35.004Z,0.80
2024-02-19T12:58:03.490Z,0.77
2024-02-19T13:00:31.913Z,0.80
2024-02-19T13:03:00.332Z,0.80
2024-02-19T13:05:28.883Z,0.80
2024-02-19T13:07:57.517Z,0.57
2024-02-19T13:10:26.083Z,0.70
2024-02-19T13:12:56.834Z,0.70
2024-02-19T13:15:25.202Z,0.77
2024-02-19T13:17:53.592Z,0.90
2024-02-19T13:20:22.224Z,0.70
2024-02-19T13:22:50.762Z,0.45
2024-02-19T13:25:19.338Z,0.75
2024-02-19T13:27:47.718Z,0.80
2024-02-19T13:30:18.802Z,1.00
2024-02-19T13:32:49.757Z,0.93
2024-02-19T13:35:19.313Z,1.00
2024-02-19T13:37:48.154Z,0.90
2024-02-19T13:40:16.642Z,0.90
2024-02-19T13:42:45.097Z,0.80
2024-02-19T13:45:14.008Z,0.80
2024-02-19T13:47:45.379Z,1.00
2024-02-19T13:52:42.787Z,0.90
2024-02-19T13:55:11.600Z,0.93
2024-02-19T13:57:40.279Z,0.77
2024-02-19T14:00:11.938Z,0.90
2024-02-19T14:02:42.167Z,0.75
2024-02-19T14:05:12.478Z,0.60
2024-02-19T14:07:41.008Z,1.00
2024-02-19T14:10:10.283Z,0.90
2024-02-19T14:12:38.732Z,1.10
2024-02-19T14:15:08.303Z,1.10
2024-02-19T14:17:36.957Z,0.90
2024-02-19T14:20:06.836Z,0.90
2024-02-19T14:22:37.133Z,0.93
2024-02-19T14:25:09.987Z,1.40
2024-02-19T14:27:39.751Z,1.25
2024-02-19T14:30:09.757Z,1.10
2024-02-19T14:32:39.959Z,1.20
2024-02-19T14:35:09.678Z,1.10
2024-02-19T14:37:40.176Z,1.58
2024-02-19T14:40:11.111Z,1.67
2024-02-19T14:42:39.530Z,1.27
2024-02-19T14:45:08.778Z,1.50
2024-02-19T14:47:38.510Z,1.20
2024-02-19T14:50:08.053Z,1.20
2024-02-19T14:52:36.592Z,1.50
2024-02-19T14:55:11.185Z,1.40
2024-02-19T14:57:42.212Z,1.60
2024-02-19T15:00:12.066Z,1.30
2024-02-19T15:02:41.634Z,1.40
2024-02-19T15:05:12.490Z,1.42
2024-02-19T15:07:43.012Z,1.10
2024-02-19T15:10:15.460Z,1.17
2024-02-19T15:12:44.394Z,1.27
2024-02-19T15:15:15.155Z,1.20
2024-02-19T15:17:43.625Z,1.20
2024-02-19T15:20:13.242Z,1.10
2024-02-19T15:22:41.925Z,1.25
2024-02-19T15:25:10.840Z,1.15
2024-02-19T15:27:42.220Z,1.15
2024-02-19T15:30:11.486Z,1.30
2024-02-19T15:32:41.175Z,1.05
2024-02-19T15:35:09.922Z,1.30
2024-02-19T15:37:38.589Z,1.25
2024-02-19T15:40:09.663Z,1.65
2024-02-19T15:42:39.084Z,1.55
2024-02-19T15:45:09.697Z,1.50
2024-02-19T15:47:38.068Z,1.87
2024-02-19T15:50:08.847Z,1.65
2024-02-19T15:52:37.860Z,1.70
2024-02-19T15:55:08.601Z,1.60
2024-02-19T15:57:37.179Z,1.35
2024-02-19T16:00:09.793Z,1.45
2024-02-19T16:02:41.699Z,24.63
2024-02-19T16:05:10.978Z,11.40
2024-02-19T16:07:39.599Z,3.63
2024-02-19T16:10:12.974Z,2.28
2024-02-19T16:12:41.370Z,1.92
2024-02-19T16:15:10.367Z,1.65
2024-02-19T16:17:40.214Z,1.77
2024-02-19T16:20:09.529Z,1.60
2024-02-19T16:22:40.114Z,1.80
2024-02-19T16:25:09.503Z,2.05
2024-02-19T16:27:38.096Z,2.13
2024-02-19T16:30:10.104Z,2.00
2024-02-19T16:32:40.498Z,2.00
2024-02-19T16:35:10.382Z,1.80
2024-02-19T16:37:39.062Z,1.90
2024-02-19T16:40:08.828Z,1.70
2024-02-19T16:42:39.413Z,2.50
2024-02-19T16:45:09.607Z,3.60
2024-02-19T16:47:39.491Z,3.90
2024-02-19T16:50:08.574Z,4.53
2024-02-19T16:52:37.153Z,4.32
2024-02-19T16:55:08.844Z,4.50
2024-02-19T16:57:37.524Z,3.97
2024-02-19T17:00:07.048Z,3.80
2024-02-19T17:02:35.649Z,2.63
2024-02-19T17:05:06.441Z,2.70
2024-02-19T17:07:35.412Z,2.30
2024-02-19T17:10:06.186Z,2.70
2024-02-19T17:12:35.065Z,4.03
2024-02-19T17:15:04.005Z,5.47
2024-02-19T17:17:32.583Z,4.20
2024-02-19T17:20:01.693Z,5.00
2024-02-19T17:22:31.723Z,5.45
2024-02-19T17:25:00.228Z,4.88
2024-02-19T17:27:28.701Z,3.88
2024-02-19T17:29:57.145Z,3.90
2024-02-19T17:32:25.662Z,4.18
2024-02-19T17:34:54.249Z,3.67
2024-02-19T17:37:22.700Z,3.58
2024-02-19T17:39:52.587Z,3.10
2024-02-19T17:42:22.640Z,2.78
2024-02-19T17:44:50.979Z,2.95
2024-02-19T17:47:19.333Z,3.08
2024-02-19T17:49:47.823Z,2.75
2024-02-19T17:52:16.247Z,2.33
2024-02-19T17:54:44.971Z,2.67
2024-02-19T17:57:16.203Z,2.38
2024-02-19T17:59:44.601Z,4.93
2024-02-19T18:02:14.091Z,3.72
2024-02-19T18:04:47.518Z,2.92
2024-02-19T18:07:15.970Z,3.08
2024-02-19T18:09:44.258Z,2.70
2024-02-19T18:12:12.898Z,4.70
2024-02-19T18:14:42.763Z,4.25
2024-02-19T18:17:11.553Z,4.80
2024-02-19T18:19:41.031Z,4.32
2024-02-19T18:22:11.280Z,3.97
2024-02-19T18:24:40.094Z,3.53
2024-02-19T18:27:09.475Z,3.03
2024-02-19T18:29:38.420Z,2.75
2024-02-19T18:32:09.377Z,2.15
2024-02-19T18:34:38.017Z,2.13
2024-02-19T18:37:06.971Z,2.00
2024-02-19T18:39:36.033Z,2.38
2024-02-19T18:42:05.758Z,2.22
2024-02-19T18:44:34.388Z,2.25
2024-02-19T18:47:04.182Z,2.72
2024-02-19T18:49:35.161Z,2.72
2024-02-19T18:52:03.698Z,2.28
2024-02-19T18:54:33.017Z,2.00
2024-02-19T18:57:02.410Z,2.22
2024-02-19T18:59:31.943Z,2.20
2024-02-19T19:02:04.402Z,2.15
2024-02-19T19:04:34.724Z,2.08
2024-02-19T19:07:03.189Z,1.90
2024-02-19T19:09:32.598Z,2.05
2024-02-19T19:12:05.274Z,2.47
2024-02-19T19:14:35.509Z,2.60
2024-02-19T19:17:04.062Z,2.80
2024-02-19T19:19:36.057Z,2.70
2024-02-19T19:22:05.066Z,2.58
2024-02-19T19:24:35.143Z,2.85
2024-02-19T19:27:05.668Z,2.53
2024-02-19T19:29:34.252Z,2.60
2024-02-19T19:32:02.607Z,2.70
2024-02-19T19:34:31.505Z,2.88
2024-02-19T19:37:02.225Z,2.80
2024-02-19T19:39:30.674Z,2.90
2024-02-19T19:41:59.116Z,2.60
2024-02-19T19:44:27.489Z,2.53
2024-02-19T19:46:57.637Z,2.95
2024-02-19T19:49:26.176Z,2.72
2024-02-19T19:51:54.565Z,2.80
2024-02-19T19:54:24.861Z,2.33
2024-02-19T19:56:53.201Z,2.10
2024-02-19T19:59:21.548Z,2.20
2024-02-19T20:01:50.042Z,2.25
2024-02-19T20:04:18.456Z,2.22
2024-02-19T20:06:47.332Z,2.50
2024-02-19T20:09:15.838Z,2.33
2024-02-19T20:11:45.655Z,2.20
2024-02-19T20:14:14.634Z,2.38
2024-02-19T20:16:43.084Z,1.92
2024-02-19T20:19:12.269Z,2.50
2024-02-19T20:21:40.744Z,2.33
2024-02-19T20:24:09.235Z,2.30
2024-02-19T20:26:39.288Z,2.47
2024-02-19T20:29:09.055Z,2.45
2024-02-19T20:31:40.967Z,2.08
2024-02-19T20:34:09.736Z,2.30
2024-02-19T20:36:39.395Z,2.25
2024-02-19T20:39:10.416Z,2.15
2024-02-19T20:41:38.741Z,2.10
2024-02-19T20:44:08.533Z,2.05
2024-02-19T20:46:37.144Z,2.20
2024-02-19T20:49:05.669Z,1.90
2024-02-19T20:51:34.054Z,2.10
2024-02-19T20:54:02.407Z,1.85
2024-02-19T20:56:30.908Z,1.92
2024-02-19T20:58:59.226Z,2.15
2024-02-19T21:01:31.144Z,2.10
2024-02-19T21:03:59.566Z,2.03
2024-02-19T21:06:28.633Z,2.10
2024-02-19T21:08:57.072Z,2.00
2024-02-19T21:11:25.604Z,2.00
2024-02-19T21:13:53.996Z,2.03
2024-02-19T21:16:23.314Z,2.20
2024-02-19T21:18:53.652Z,2.20
2024-02-19T21:21:30.178Z,2.30
2024-02-19T21:24:03.632Z,2.00
2024-02-19T21:26:32.479Z,2.17
2024-02-19T21:29:01.013Z,2.20
2024-02-19T21:31:29.351Z,2.28
2024-02-19T21:34:00.014Z,2.20
2024-02-19T21:36:28.540Z,2.22
2024-02-19T21:38:56.971Z,2.15
2024-02-19T21:41:25.575Z,2.05
2024-02-19T21:43:53.901Z,2.40
2024-02-19T21:46:22.311Z,2.20
2024-02-19T21:48:54.440Z,2.42
2024-02-19T21:51:24.561Z,2.30
2024-02-19T21:53:52.901Z,1.80
2024-02-19T21:56:21.785Z,2.38
2024-02-19T21:58:50.133Z,2.20
2024-02-19T22:01:18.554Z,2.00
2024-02-19T22:03:46.951Z,2.42
2024-02-19T22:06:15.380Z,2.28
2024-02-19T22:08:45.516Z,2.15
2024-02-19T22:11:14.578Z,2.05
2024-02-19T22:13:42.964Z,2.10
2024-02-19T22:16:11.520Z,2.10
2024-02-19T22:18:40.011Z,2.30
2024-02-19T22:21:08.346Z,2.00
2024-02-19T22:23:36.675Z,2.00
2024-02-19T22:26:06.703Z,1.90
2024-02-19T22:28:36.384Z,1.92
2024-02-19T22:31:07.148Z,1.88
2024-02-19T22:33:35.647Z,1.80
2024-02-19T22:36:04.971Z,1.98
2024-02-19T22:38:33.333Z,2.13
2024-02-19T22:41:02.135Z,2.00
2024-02-19T22:43:32.323Z,1.85
2024-02-19T22:46:00.929Z,2.10
2024-02-19T22:48:29.506Z,2.20
2024-02-19T22:50:58.004Z,1.95
2024-02-19T22:53:26.786Z,2.25
2024-02-19T22:55:55.665Z,2.00
2024-02-19T22:58:31.596Z,1.98
2024-02-19T23:01:05.698Z,1.92
2024-02-19T23:03:34.341Z,1.80
2024-02-19T23:06:02.718Z,1.90
2024-02-19T23:08:31.363Z,1.83
2024-02-19T23:10:59.925Z,2.17
2024-02-19T23:13:28.495Z,2.08
2024-02-19T23:15:57.439Z,1.90
2024-02-19T23:18:27.357Z,2.17
2024-02-19T23:20:55.942Z,2.17
2024-02-19T23:23:24.379Z,1.90
2024-02-19T23:25:54.494Z,2.05
2024-02-19T23:28:23.356Z,2.40
2024-02-19T23:30:53.619Z,2.25
2024-02-19T23:33:22.248Z,2.30
2024-02-19T23:35:52.132Z,2.53
2024-02-19T23:38:23.684Z,2.35
2024-02-19T23:43:20.663Z,2.63
2024-02-19T23:45:49.444Z,2.30
2024-02-19T23:48:18.707Z,1.90
2024-02-19T23:50:47.031Z,2.00
2024-02-19T23:53:17.323Z,2.33
2024-02-19T23:55:45.823Z,1.88
2024-02-19T23:58:14.391Z,1.95
